Historique des mesures à Cassis (13260), France
Quotidien Résumé Janvier 15, 2018 Unités:  Métrique    US   Métrique/US
« Précédent (Jour)
Suivant (Jour) »
Quotidien Hebdomadaire Mensuel Annuel Période au choix
  Maximum: Minimum: Moyenne:
Température: TemperatureC °C 9.6 °C 10.9 °C
Point de rosée: DewpointC °C 5.0 °C 6.2 °C
Humidité: Humidity % 67 % 68 %
Vitesse du vent: 0 km/h 0 km/h 0.6 km/h
Rafales: 0 km/h - -
Vent:- - SE
Pression: PressurehPa hPa 1016.5 hPa -
Précipitations: 0 mm    
Historical Graphs
 
 
Mesures pour : Janvier 15, 2018
Heure Temperature Point de rosée Pression Vent Vitesse du vent Rafales Humidité Pluie (par heure)
TemperatureC °C DewpointC °C PressurehPa hPa Calm     Humidity % 0 mm
01:12 10.4 °C 5.4 °C 1017.2 hPa Calm     71 % 0 mm
02:12 10.4 °C 5.6 °C 1017.5 hPa Calm   4.2 km/h 72 % 0 mm
03:12 10.6 °C 5.6 °C 1017.2 hPa Calm     71 % 0 mm
04:12 10.3 °C 5.3 °C 1016.8 hPa Calm     71 % 0 mm
05:12 9.6 °C 5.0 °C 1017.2 hPa NW 4.2 km/h 4.2 km/h 73 % 0 mm
06:12 9.8 °C 5.2 °C 1017.2 hPa Calm   8 km/h 73 % 0 mm
08:12 10.3 °C 5.5 °C 1017.8 hPa Calm     72 % 0 mm
09:12 10.3 °C 5.5 °C 1018.5 hPa North 3.4 km/h 3.4 km/h 72 % 0 mm
10:12 10.7 °C 5.9 °C 1018.8 hPa Calm     72 % 0 mm
11:12 11.6 °C 6.6 °C 1019.5 hPa Calm     71 % 0 mm
12:12 12.6 °C 7.1 °C 1019.2 hPa Calm   3.4 km/h 69 % 0 mm
13:12 13.1 °C 7.3 °C 1018.2 hPa Calm   2.9 km/h 68 % 0 mm
14:12 13.6 °C 8.0 °C 1017.2 hPa Calm   8 km/h 69 % 0 mm
15:12 14.1 °C 8.1 °C 1017.8 hPa East 2.3 km/h 7.6 km/h 67 % 0 mm
16:12 13.6 °C 8.0 °C 1017.5 hPa SSE 3.4 km/h 3.4 km/h 69 % 0 mm
17:12 12.8 °C 7.7 °C 1017.2 hPa Calm     71 % 0 mm
19:12 11.9 °C 7.6 °C 1016.8 hPa Calm     75 % 0 mm
21:12 11.4 °C 7.3 °C 1017.2 hPa Calm   10.3 km/h 76 % 0 mm
22:12 11.3 °C 7.2 °C 1016.8 hPa Calm     76 % 0 mm
23:12 11.0 °C 6.9 °C 1016.5 hPa Calm     76 % 0 mm
Observations météo à CASSIS
WU-History script by Weather Underground - 1 mb